createdAt,value
2023-09-06T00:00:50.213Z,3.90
2023-09-06T00:05:52.586Z,4.18
2023-09-06T00:10:54.419Z,3.95
2023-09-06T00:15:56.246Z,4.55
2023-09-06T00:20:58.947Z,3.88
2023-09-06T00:26:01.011Z,3.90
2023-09-06T00:31:02.894Z,3.75
2023-09-06T00:36:07.496Z,4.20
2023-09-06T00:41:09.333Z,4.15
2023-09-06T00:46:11.375Z,4.00
2023-09-06T00:51:13.428Z,4.07
2023-09-06T00:56:15.822Z,4.13
2023-09-06T01:01:18.071Z,4.32
2023-09-06T01:06:27.192Z,4.63
2023-09-06T01:11:29.219Z,3.92
2023-09-06T01:16:47.034Z,4.38
2023-09-06T01:22:09.719Z,4.03
2023-09-06T01:27:13.574Z,4.20
2023-09-06T01:32:18.010Z,4.13
2023-09-06T01:37:19.882Z,4.60
2023-09-06T01:42:23.690Z,4.50
2023-09-06T01:47:26.694Z,3.97
2023-09-06T01:52:29.010Z,4.13
2023-09-06T01:57:30.776Z,3.92
2023-09-06T02:02:32.689Z,4.00
2023-09-06T02:07:34.851Z,4.35
2023-09-06T02:12:37.123Z,4.13
2023-09-06T02:17:39.840Z,3.50
2023-09-06T02:22:44.382Z,4.07
2023-09-06T02:27:46.236Z,3.65
2023-09-06T02:32:49.998Z,4.15
2023-09-06T02:37:52.012Z,3.95
2023-09-06T02:42:54.813Z,4.10
2023-09-06T02:47:56.799Z,3.83
2023-09-06T02:52:58.592Z,4.38
2023-09-06T02:58:00.977Z,3.90
2023-09-06T03:03:07.149Z,3.97
2023-09-06T03:08:11.900Z,3.97
2023-09-06T03:13:16.291Z,3.90
2023-09-06T03:18:20.144Z,3.60
2023-09-06T03:23:25.187Z,3.88
2023-09-06T03:28:30.521Z,3.53
2023-09-06T03:33:33.402Z,3.95
2023-09-06T03:38:36.928Z,3.92
2023-09-06T03:43:39.586Z,3.97
2023-09-06T03:48:42.022Z,3.50
2023-09-06T03:53:44.090Z,3.72
2023-09-06T03:58:46.073Z,3.30
2023-09-06T04:03:51.467Z,3.50
2023-09-06T04:08:54.707Z,3.70
2023-09-06T04:13:57.682Z,3.30
2023-09-06T04:19:02.385Z,2.78
2023-09-06T04:24:05.175Z,3.60
2023-09-06T04:29:07.415Z,3.13
2023-09-06T04:34:09.416Z,3.33
2023-09-06T04:39:11.806Z,3.28
2023-09-06T04:44:15.110Z,2.72
2023-09-06T04:49:17.024Z,2.95
2023-09-06T04:54:19.625Z,3.15
2023-09-06T04:59:21.748Z,2.80
2023-09-06T05:04:24.497Z,2.90
2023-09-06T05:09:26.426Z,3.13
2023-09-06T05:14:30.761Z,3.13
2023-09-06T05:19:34.019Z,3.00
2023-09-06T05:24:36.418Z,3.08
2023-09-06T05:29:38.263Z,3.10
2023-09-06T05:34:40.369Z,3.63
2023-09-06T05:39:44.159Z,3.55
2023-09-06T05:44:46.110Z,3.53
2023-09-06T05:49:52.373Z,2.70
2023-09-06T05:54:55.899Z,3.45
2023-09-06T05:59:59.150Z,3.58
2023-09-06T06:05:01.268Z,3.42
2023-09-06T06:10:03.289Z,3.33
2023-09-06T06:15:06.420Z,3.33
2023-09-06T06:20:11.112Z,3.20
2023-09-06T06:25:13.150Z,3.08
2023-09-06T06:30:15.949Z,2.63
2023-09-06T06:35:17.834Z,2.40
2023-09-06T06:40:19.859Z,2.83
2023-09-06T06:45:21.610Z,2.22
2023-09-06T06:50:23.647Z,2.70
2023-09-06T06:55:25.784Z,2.40
2023-09-06T07:00:35.492Z,2.65
2023-09-06T07:05:37.374Z,2.83
2023-09-06T07:10:39.136Z,2.95
2023-09-06T07:15:41.142Z,2.67
2023-09-06T07:20:43.513Z,2.75
2023-09-06T07:25:47.941Z,3.70
2023-09-06T07:30:50.161Z,3.13
2023-09-06T07:35:51.947Z,3.38
2023-09-06T07:41:01.487Z,4.07
2023-09-06T07:46:04.421Z,4.00
2023-09-06T07:51:06.665Z,4.50
2023-09-06T07:56:08.776Z,4.05
2023-09-06T08:01:19.017Z,3.80
2023-09-06T08:06:22.023Z,3.70
2023-09-06T08:11:23.921Z,4.28
2023-09-06T08:16:25.823Z,4.10
2023-09-06T08:21:28.029Z,4.07
2023-09-06T08:26:30.054Z,3.67
2023-09-06T08:31:32.484Z,3.65
2023-09-06T08:36:34.275Z,3.25
2023-09-06T08:41:36.158Z,4.22
2023-09-06T08:46:44.519Z,3.85
2023-09-06T08:51:47.251Z,3.58
2023-09-06T08:56:49.725Z,3.45
2023-09-06T09:01:51.744Z,3.72
2023-09-06T09:06:53.686Z,3.40
2023-09-06T09:11:56.230Z,3.47
2023-09-06T09:16:59.921Z,3.15
2023-09-06T09:22:09.396Z,3.60
2023-09-06T09:27:11.452Z,3.60
2023-09-06T09:32:14.687Z,3.47
2023-09-06T09:37:16.538Z,2.97
2023-09-06T09:42:18.351Z,2.92
2023-09-06T09:47:43.297Z,3.00
2023-09-06T09:52:47.963Z,3.20
2023-09-06T09:57:51.897Z,2.85
2023-09-06T10:02:54.036Z,2.90
2023-09-06T10:07:57.273Z,2.88
2023-09-06T10:13:03.228Z,3.25
2023-09-06T10:18:07.659Z,2.97
2023-09-06T10:23:12.771Z,3.28
2023-09-06T10:28:15.574Z,3.10
2023-09-06T10:33:36.895Z,3.53
2023-09-06T10:38:54.230Z,2.95
2023-09-06T10:43:59.752Z,3.70
2023-09-06T10:49:22.208Z,3.17
2023-09-06T10:54:41.649Z,2.78
2023-09-06T10:59:45.977Z,3.08
2023-09-06T11:04:48.585Z,3.22
2023-09-06T11:09:51.827Z,3.30
2023-09-06T11:14:55.828Z,3.28
2023-09-06T11:20:18.113Z,3.15
2023-09-06T11:25:22.578Z,2.92
2023-09-06T11:30:25.147Z,3.40
2023-09-06T11:35:32.249Z,3.63
2023-09-06T11:40:36.223Z,4.10
2023-09-06T11:45:39.958Z,3.78
2023-09-06T11:50:44.037Z,3.60
2023-09-06T11:55:48.614Z,3.63
2023-09-06T12:00:52.471Z,3.78
2023-09-06T12:05:57.369Z,3.90
2023-09-06T12:11:12.077Z,3.72
2023-09-06T12:16:14.156Z,3.95
2023-09-06T12:21:17.461Z,3.75
2023-09-06T12:26:20.038Z,4.13
2023-09-06T12:31:21.990Z,3.80
2023-09-06T12:36:23.830Z,4.05
2023-09-06T12:41:25.758Z,3.83
2023-09-06T12:46:27.800Z,3.80
2023-09-06T12:51:29.815Z,3.75
2023-09-06T12:56:31.657Z,4.32
2023-09-06T13:01:33.559Z,4.18
2023-09-06T13:06:38.922Z,3.70
2023-09-06T13:11:40.819Z,3.50
2023-09-06T13:16:42.805Z,3.42
2023-09-06T13:21:45.588Z,3.28
2023-09-06T13:26:49.442Z,3.30
2023-09-06T13:31:52.410Z,3.60
2023-09-06T13:36:54.476Z,3.65
2023-09-06T13:41:57.113Z,3.45
2023-09-06T13:46:59.533Z,3.00
2023-09-06T13:52:01.341Z,3.63
2023-09-06T13:57:04.584Z,3.20
2023-09-06T14:02:07.243Z,3.38
2023-09-06T14:07:09.222Z,3.40
2023-09-06T14:12:10.962Z,3.17
2023-09-06T14:17:12.795Z,3.33
2023-09-06T14:22:14.615Z,3.72
2023-09-06T14:27:18.154Z,3.45
2023-09-06T14:32:20.117Z,3.78
2023-09-06T14:37:22.351Z,3.17
2023-09-06T14:42:24.253Z,3.50
2023-09-06T14:47:26.217Z,3.47
2023-09-06T14:52:28.049Z,3.65
2023-09-06T14:57:29.865Z,3.65
2023-09-06T15:02:31.872Z,3.75
2023-09-06T15:07:33.785Z,3.80
2023-09-06T15:12:37.223Z,4.35
2023-09-06T15:17:39.172Z,3.95
2023-09-06T15:22:41.822Z,4.03
2023-09-06T15:27:43.710Z,3.83
2023-09-06T15:32:45.517Z,4.47
2023-09-06T15:38:08.313Z,4.30
2023-09-06T15:43:10.490Z,4.38
2023-09-06T15:48:12.367Z,4.50
2023-09-06T15:53:14.218Z,4.72
2023-09-06T15:58:16.017Z,4.25
2023-09-06T16:03:18.194Z,4.30
2023-09-06T16:08:21.022Z,4.80
2023-09-06T16:13:22.911Z,4.45
2023-09-06T16:18:24.716Z,4.65
2023-09-06T16:23:26.519Z,4.28
2023-09-06T16:28:28.570Z,4.45
2023-09-06T16:33:33.599Z,5.03
2023-09-06T16:38:35.705Z,6.07
2023-09-06T16:43:38.514Z,5.10
2023-09-06T16:48:40.316Z,5.38
2023-09-06T16:53:42.184Z,5.30
2023-09-06T16:58:43.984Z,4.47
2023-09-06T17:03:45.855Z,5.00
2023-09-06T17:08:47.638Z,5.15
2023-09-06T17:13:49.500Z,4.63
2023-09-06T17:18:51.270Z,5.05
2023-09-06T17:24:03.614Z,5.10
2023-09-06T17:29:11.455Z,4.50
2023-09-06T17:34:13.405Z,4.40
2023-09-06T17:39:15.221Z,4.53
2023-09-06T17:44:17.632Z,5.03
2023-09-06T17:49:19.613Z,4.13
2023-09-06T17:54:27.898Z,4.60
2023-09-06T17:59:30.217Z,5.03
2023-09-06T18:04:32.237Z,4.60
2023-09-06T18:09:34.757Z,4.70
2023-09-06T18:14:37.012Z,4.05
2023-09-06T18:19:38.789Z,4.00
2023-09-06T18:24:41.636Z,3.90
2023-09-06T18:29:43.456Z,4.10
2023-09-06T18:34:45.358Z,4.40
2023-09-06T18:39:51.956Z,3.97
2023-09-06T18:44:53.779Z,3.78
2023-09-06T18:49:55.620Z,3.90
2023-09-06T18:54:57.994Z,3.80
2023-09-06T18:59:59.755Z,3.95
2023-09-06T19:05:01.627Z,4.05
2023-09-06T19:10:08.901Z,3.80
2023-09-06T19:15:14.815Z,3.80
2023-09-06T19:20:17.291Z,3.85
2023-09-06T19:25:19.750Z,3.67
2023-09-06T19:30:21.643Z,4.13
2023-09-06T19:35:23.791Z,4.45
2023-09-06T19:40:25.604Z,4.20
2023-09-06T19:45:27.447Z,4.00
2023-09-06T19:50:31.199Z,3.85
2023-09-06T19:55:36.289Z,4.30
2023-09-06T20:00:38.079Z,4.05
2023-09-06T20:05:40.095Z,4.20
2023-09-06T20:10:47.097Z,4.30
2023-09-06T20:15:48.929Z,4.10
2023-09-06T20:20:50.896Z,4.28
2023-09-06T20:25:55.762Z,4.07
2023-09-06T20:30:57.552Z,3.90
2023-09-06T20:36:00.144Z,4.05
2023-09-06T20:41:04.981Z,4.47
2023-09-06T20:46:06.812Z,4.00
2023-09-06T20:51:12.125Z,3.92
2023-09-06T20:56:14.492Z,4.03
2023-09-06T21:01:20.444Z,4.00
2023-09-06T21:06:22.633Z,4.35
2023-09-06T21:11:24.542Z,4.20
2023-09-06T21:16:26.721Z,4.50
2023-09-06T21:21:28.603Z,4.55
2023-09-06T21:26:30.450Z,4.25
2023-09-06T21:31:32.287Z,4.78
2023-09-06T21:36:34.147Z,3.97
2023-09-06T21:41:35.976Z,5.03
2023-09-06T21:46:37.853Z,4.93
2023-09-06T21:51:39.635Z,4.72
2023-09-06T21:56:41.481Z,4.80
2023-09-06T22:01:43.308Z,4.30
2023-09-06T22:07:04.291Z,4.75
2023-09-06T22:12:24.356Z,4.32
2023-09-06T22:17:26.354Z,5.05
2023-09-06T22:22:28.236Z,5.07
2023-09-06T22:27:30.019Z,5.32
2023-09-06T22:32:32.349Z,4.35
2023-09-06T22:37:37.308Z,5.30
2023-09-06T22:42:40.015Z,4.75
2023-09-06T22:47:41.948Z,5.05
2023-09-06T22:52:43.854Z,4.43
2023-09-06T22:57:45.687Z,4.60
2023-09-06T23:02:47.567Z,4.40
2023-09-06T23:07:49.679Z,4.80
2023-09-06T23:12:53.088Z,5.13
2023-09-06T23:17:55.598Z,4.22
2023-09-06T23:22:59.716Z,4.43
2023-09-06T23:28:05.980Z,4.65
2023-09-06T23:33:14.482Z,4.70
2023-09-06T23:38:17.459Z,4.60
2023-09-06T23:43:19.369Z,5.10
2023-09-06T23:48:22.604Z,4.68
2023-09-06T23:53:26.332Z,4.25
2023-09-06T23:58:28.155Z,3.92
